sensor_id;sensor_type;location;lat;lon;timestamp;P1;durP1;ratioP1;P2;durP2;ratioP2
33840;SDS011;20142;28.494;-16.312;2023-02-15T00:02:50;274.60;;;26.60;;
33840;SDS011;20142;28.494;-16.312;2023-02-15T00:07:52;264.45;;;26.73;;
33840;SDS011;20142;28.494;-16.312;2023-02-15T00:12:54;288.90;;;26.98;;
33840;SDS011;20142;28.494;-16.312;2023-02-15T00:17:56;266.13;;;25.85;;
33840;SDS011;20142;28.494;-16.312;2023-02-15T00:22:58;266.50;;;26.65;;
33840;SDS011;20142;28.494;-16.312;2023-02-15T00:28:00;258.48;;;23.90;;
33840;SDS011;20142;28.494;-16.312;2023-02-15T00:33:02;232.13;;;21.23;;
33840;SDS011;20142;28.494;-16.312;2023-02-15T00:38:03;225.80;;;23.63;;
33840;SDS011;20142;28.494;-16.312;2023-02-15T00:43:05;258.17;;;23.13;;
33840;SDS011;20142;28.494;-16.312;2023-02-15T00:48:07;225.13;;;21.85;;
33840;SDS011;20142;28.494;-16.312;2023-02-15T00:53:08;256.77;;;24.33;;
33840;SDS011;20142;28.494;-16.312;2023-02-15T00:58:10;218.90;;;24.15;;
33840;SDS011;20142;28.494;-16.312;2023-02-15T01:03:14;238.68;;;22.52;;
33840;SDS011;20142;28.494;-16.312;2023-02-15T01:08:17;215.82;;;22.73;;
33840;SDS011;20142;28.494;-16.312;2023-02-15T01:13:19;233.55;;;22.17;;
33840;SDS011;20142;28.494;-16.312;2023-02-15T01:18:21;176.85;;;20.00;;
33840;SDS011;20142;28.494;-16.312;2023-02-15T01:23:23;86.38;;;10.15;;
33840;SDS011;20142;28.494;-16.312;2023-02-15T01:28:25;67.07;;;7.55;;
33840;SDS011;20142;28.494;-16.312;2023-02-15T01:33:26;80.10;;;11.23;;
33840;SDS011;20142;28.494;-16.312;2023-02-15T01:38:28;82.40;;;10.45;;
33840;SDS011;20142;28.494;-16.312;2023-02-15T01:43:43;95.25;;;11.10;;
33840;SDS011;20142;28.494;-16.312;2023-02-15T01:48:51;86.90;;;10.20;;
33840;SDS011;20142;28.494;-16.312;2023-02-15T01:54:02;60.50;;;7.25;;
33840;SDS011;20142;28.494;-16.312;2023-02-15T01:59:19;50.22;;;5.03;;
33840;SDS011;20142;28.494;-16.312;2023-02-15T02:09:32;24.23;;;2.70;;
33840;SDS011;20142;28.494;-16.312;2023-02-15T02:14:34;24.75;;;2.55;;
33840;SDS011;20142;28.494;-16.312;2023-02-15T02:20:22;19.15;;;3.15;;
33840;SDS011;20142;28.494;-16.312;2023-02-15T02:47:20;13.10;;;1.50;;
33840;SDS011;20142;28.494;-16.312;2023-02-15T02:52:40;12.10;;;1.25;;
33840;SDS011;20142;28.494;-16.312;2023-02-15T03:09:12;27.33;;;3.08;;
33840;SDS011;20142;28.494;-16.312;2023-02-15T03:14:25;22.17;;;1.92;;
33840;SDS011;20142;28.494;-16.312;2023-02-15T03:19:27;10.75;;;1.15;;
33840;SDS011;20142;28.494;-16.312;2023-02-15T03:30:01;17.83;;;1.60;;
33840;SDS011;20142;28.494;-16.312;2023-02-15T03:35:05;10.52;;;1.27;;
33840;SDS011;20142;28.494;-16.312;2023-02-15T03:40:10;17.02;;;1.77;;
33840;SDS011;20142;28.494;-16.312;2023-02-15T03:45:44;23.08;;;2.95;;
33840;SDS011;20142;28.494;-16.312;2023-02-15T03:51:01;18.05;;;1.75;;
33840;SDS011;20142;28.494;-16.312;2023-02-15T03:56:27;17.90;;;2.60;;
33840;SDS011;20142;28.494;-16.312;2023-02-15T04:01:37;26.60;;;2.58;;
33840;SDS011;20142;28.494;-16.312;2023-02-15T04:07:09;27.20;;;2.30;;
33840;SDS011;20142;28.494;-16.312;2023-02-15T04:12:12;25.63;;;2.00;;
33840;SDS011;20142;28.494;-16.312;2023-02-15T04:17:14;6.57;;;0.90;;
33840;SDS011;20142;28.494;-16.312;2023-02-15T04:22:16;8.20;;;0.77;;
33840;SDS011;20142;28.494;-16.312;2023-02-15T04:27:35;15.38;;;1.60;;
33840;SDS011;20142;28.494;-16.312;2023-02-15T04:32:38;7.47;;;1.05;;
33840;SDS011;20142;28.494;-16.312;2023-02-15T04:37:39;8.18;;;1.08;;
33840;SDS011;20142;28.494;-16.312;2023-02-15T04:42:42;7.63;;;0.98;;
33840;SDS011;20142;28.494;-16.312;2023-02-15T04:47:44;10.40;;;1.00;;
33840;SDS011;20142;28.494;-16.312;2023-02-15T04:52:45;13.60;;;1.23;;
33840;SDS011;20142;28.494;-16.312;2023-02-15T04:57:47;11.45;;;0.90;;
33840;SDS011;20142;28.494;-16.312;2023-02-15T05:02:49;7.43;;;0.70;;
33840;SDS011;20142;28.494;-16.312;2023-02-15T05:07:50;7.25;;;0.65;;
33840;SDS011;20142;28.494;-16.312;2023-02-15T05:12:52;10.90;;;1.23;;
33840;SDS011;20142;28.494;-16.312;2023-02-15T05:17:54;11.00;;;0.80;;
33840;SDS011;20142;28.494;-16.312;2023-02-15T05:22:55;9.80;;;0.50;;
33840;SDS011;20142;28.494;-16.312;2023-02-15T05:27:57;8.40;;;0.88;;
33840;SDS011;20142;28.494;-16.312;2023-02-15T05:33:17;5.28;;;0.90;;
33840;SDS011;20142;28.494;-16.312;2023-02-15T05:38:18;8.70;;;0.57;;
33840;SDS011;20142;28.494;-16.312;2023-02-15T05:43:20;2.95;;;0.30;;
33840;SDS011;20142;28.494;-16.312;2023-02-15T05:48:23;3.20;;;0.38;;
33840;SDS011;20142;28.494;-16.312;2023-02-15T05:53:27;7.22;;;0.60;;
33840;SDS011;20142;28.494;-16.312;2023-02-15T05:58:35;5.63;;;0.82;;
33840;SDS011;20142;28.494;-16.312;2023-02-15T06:03:39;15.33;;;1.27;;
33840;SDS011;20142;28.494;-16.312;2023-02-15T06:08:41;17.20;;;1.70;;
33840;SDS011;20142;28.494;-16.312;2023-02-15T06:13:43;22.98;;;1.92;;
33840;SDS011;20142;28.494;-16.312;2023-02-15T06:18:45;21.73;;;2.20;;
33840;SDS011;20142;28.494;-16.312;2023-02-15T06:23:47;21.25;;;2.13;;
33840;SDS011;20142;28.494;-16.312;2023-02-15T06:28:48;12.77;;;1.73;;
33840;SDS011;20142;28.494;-16.312;2023-02-15T06:33:50;19.75;;;1.63;;
33840;SDS011;20142;28.494;-16.312;2023-02-15T06:38:51;6.63;;;0.63;;
33840;SDS011;20142;28.494;-16.312;2023-02-15T06:43:53;10.15;;;0.75;;
33840;SDS011;20142;28.494;-16.312;2023-02-15T06:48:55;14.55;;;1.30;;
33840;SDS011;20142;28.494;-16.312;2023-02-15T06:53:56;8.60;;;0.77;;
33840;SDS011;20142;28.494;-16.312;2023-02-15T06:58:58;12.23;;;1.25;;
33840;SDS011;20142;28.494;-16.312;2023-02-15T07:04:00;15.35;;;1.65;;
33840;SDS011;20142;28.494;-16.312;2023-02-15T07:09:01;17.45;;;1.30;;
33840;SDS011;20142;28.494;-16.312;2023-02-15T07:14:04;13.57;;;1.25;;
33840;SDS011;20142;28.494;-16.312;2023-02-15T07:19:06;12.48;;;1.60;;
33840;SDS011;20142;28.494;-16.312;2023-02-15T07:24:08;18.95;;;2.00;;
33840;SDS011;20142;28.494;-16.312;2023-02-15T07:29:09;16.73;;;2.20;;
33840;SDS011;20142;28.494;-16.312;2023-02-15T07:34:11;18.65;;;2.00;;
33840;SDS011;20142;28.494;-16.312;2023-02-15T07:39:13;13.52;;;1.80;;
33840;SDS011;20142;28.494;-16.312;2023-02-15T07:44:14;11.10;;;1.60;;
33840;SDS011;20142;28.494;-16.312;2023-02-15T07:49:16;14.82;;;1.38;;
33840;SDS011;20142;28.494;-16.312;2023-02-15T07:54:18;28.23;;;2.45;;
33840;SDS011;20142;28.494;-16.312;2023-02-15T07:59:20;19.50;;;2.28;;
33840;SDS011;20142;28.494;-16.312;2023-02-15T08:04:21;19.27;;;1.90;;
33840;SDS011;20142;28.494;-16.312;2023-02-15T08:09:23;20.77;;;2.13;;
33840;SDS011;20142;28.494;-16.312;2023-02-15T08:14:26;18.60;;;2.20;;
33840;SDS011;20142;28.494;-16.312;2023-02-15T08:19:29;17.98;;;2.40;;
33840;SDS011;20142;28.494;-16.312;2023-02-15T08:24:34;23.85;;;2.10;;
33840;SDS011;20142;28.494;-16.312;2023-02-15T08:29:37;14.50;;;1.60;;
33840;SDS011;20142;28.494;-16.312;2023-02-15T08:34:40;22.70;;;2.42;;
33840;SDS011;20142;28.494;-16.312;2023-02-15T08:39:42;13.23;;;1.73;;
33840;SDS011;20142;28.494;-16.312;2023-02-15T08:44:44;17.83;;;1.65;;
33840;SDS011;20142;28.494;-16.312;2023-02-15T08:49:46;16.15;;;1.58;;
33840;SDS011;20142;28.494;-16.312;2023-02-15T08:54:47;19.42;;;2.25;;
33840;SDS011;20142;28.494;-16.312;2023-02-15T08:59:49;16.17;;;2.47;;
33840;SDS011;20142;28.494;-16.312;2023-02-15T09:04:51;11.52;;;1.63;;
33840;SDS011;20142;28.494;-16.312;2023-02-15T09:09:53;18.40;;;1.83;;
33840;SDS011;20142;28.494;-16.312;2023-02-15T09:14:55;17.15;;;2.17;;
33840;SDS011;20142;28.494;-16.312;2023-02-15T09:19:56;19.83;;;1.83;;
33840;SDS011;20142;28.494;-16.312;2023-02-15T09:24:58;14.32;;;1.80;;
33840;SDS011;20142;28.494;-16.312;2023-02-15T09:30:00;21.27;;;1.95;;
33840;SDS011;20142;28.494;-16.312;2023-02-15T09:35:01;22.02;;;2.00;;
33840;SDS011;20142;28.494;-16.312;2023-02-15T09:40:03;14.55;;;2.08;;
33840;SDS011;20142;28.494;-16.312;2023-02-15T10:01:19;13.93;;;2.28;;
33840;SDS011;20142;28.494;-16.312;2023-02-15T10:33:42;16.30;;;1.65;;
33840;SDS011;20142;28.494;-16.312;2023-02-15T10:38:50;16.08;;;2.25;;
33840;SDS011;20142;28.494;-16.312;2023-02-15T10:44:34;25.00;;;2.33;;
33840;SDS011;20142;28.494;-16.312;2023-02-15T10:49:58;19.80;;;2.22;;
33840;SDS011;20142;28.494;-16.312;2023-02-15T10:55:31;19.67;;;1.90;;
33840;SDS011;20142;28.494;-16.312;2023-02-15T11:06:55;22.65;;;2.38;;
33840;SDS011;20142;28.494;-16.312;2023-02-15T11:12:03;10.30;;;1.73;;
33840;SDS011;20142;28.494;-16.312;2023-02-15T11:17:16;19.67;;;1.98;;
33840;SDS011;20142;28.494;-16.312;2023-02-15T11:22:25;17.08;;;2.00;;
33840;SDS011;20142;28.494;-16.312;2023-02-15T11:27:33;19.60;;;1.70;;
33840;SDS011;20142;28.494;-16.312;2023-02-15T11:32:37;16.00;;;1.45;;
33840;SDS011;20142;28.494;-16.312;2023-02-15T11:37:50;11.95;;;1.10;;
33840;SDS011;20142;28.494;-16.312;2023-02-15T11:43:06;10.55;;;1.15;;
33840;SDS011;20142;28.494;-16.312;2023-02-15T11:48:17;14.05;;;1.40;;
33840;SDS011;20142;28.494;-16.312;2023-02-15T11:53:20;11.02;;;1.42;;
33840;SDS011;20142;28.494;-16.312;2023-02-15T12:03:53;12.85;;;1.48;;
33840;SDS011;20142;28.494;-16.312;2023-02-15T12:09:35;15.90;;;1.65;;
33840;SDS011;20142;28.494;-16.312;2023-02-15T12:14:48;14.90;;;2.15;;
33840;SDS011;20142;28.494;-16.312;2023-02-15T12:19:56;13.50;;;2.08;;
33840;SDS011;20142;28.494;-16.312;2023-02-15T12:25:41;14.20;;;1.58;;
33840;SDS011;20142;28.494;-16.312;2023-02-15T12:30:54;11.05;;;1.30;;
33840;SDS011;20142;28.494;-16.312;2023-02-15T12:35:58;20.30;;;2.20;;
33840;SDS011;20142;28.494;-16.312;2023-02-15T12:41:23;10.27;;;1.60;;
33840;SDS011;20142;28.494;-16.312;2023-02-15T12:46:27;7.95;;;2.17;;
33840;SDS011;20142;28.494;-16.312;2023-02-15T12:51:28;14.18;;;2.25;;
33840;SDS011;20142;28.494;-16.312;2023-02-15T12:56:30;7.90;;;1.08;;
33840;SDS011;20142;28.494;-16.312;2023-02-15T13:01:32;14.70;;;1.85;;
33840;SDS011;20142;28.494;-16.312;2023-02-15T13:06:35;10.30;;;1.20;;
33840;SDS011;20142;28.494;-16.312;2023-02-15T13:11:48;12.35;;;1.55;;
33840;SDS011;20142;28.494;-16.312;2023-02-15T13:16:50;13.75;;;1.70;;
33840;SDS011;20142;28.494;-16.312;2023-02-15T13:21:59;11.75;;;1.45;;
33840;SDS011;20142;28.494;-16.312;2023-02-15T13:27:12;11.50;;;1.42;;
33840;SDS011;20142;28.494;-16.312;2023-02-15T13:43:46;12.20;;;1.48;;
33840;SDS011;20142;28.494;-16.312;2023-02-15T13:49:02;12.23;;;1.77;;
33840;SDS011;20142;28.494;-16.312;2023-02-15T14:10:59;13.85;;;1.50;;
33840;SDS011;20142;28.494;-16.312;2023-02-15T14:44:35;13.00;;;1.98;;
33840;SDS011;20142;28.494;-16.312;2023-02-15T14:49:42;17.88;;;2.10;;
33840;SDS011;20142;28.494;-16.312;2023-02-15T15:05:09;13.63;;;1.30;;
33840;SDS011;20142;28.494;-16.312;2023-02-15T15:25:54;7.72;;;1.40;;
33840;SDS011;20142;28.494;-16.312;2023-02-15T15:31:43;13.63;;;1.65;;
33840;SDS011;20142;28.494;-16.312;2023-02-15T15:53:32;9.73;;;1.83;;
33840;SDS011;20142;28.494;-16.312;2023-02-15T15:58:43;10.40;;;1.38;;
33840;SDS011;20142;28.494;-16.312;2023-02-15T16:03:52;13.60;;;1.75;;
33840;SDS011;20142;28.494;-16.312;2023-02-15T16:08:55;9.57;;;1.27;;
33840;SDS011;20142;28.494;-16.312;2023-02-15T16:13:57;12.35;;;1.60;;
33840;SDS011;20142;28.494;-16.312;2023-02-15T16:18:59;11.13;;;1.45;;
33840;SDS011;20142;28.494;-16.312;2023-02-15T16:29:31;6.72;;;1.23;;
33840;SDS011;20142;28.494;-16.312;2023-02-15T16:34:34;13.40;;;1.60;;
33840;SDS011;20142;28.494;-16.312;2023-02-15T16:39:37;12.68;;;1.50;;
33840;SDS011;20142;28.494;-16.312;2023-02-15T16:44:45;6.13;;;1.42;;
33840;SDS011;20142;28.494;-16.312;2023-02-15T16:50:07;7.95;;;1.38;;
33840;SDS011;20142;28.494;-16.312;2023-02-15T16:55:27;9.20;;;1.25;;
33840;SDS011;20142;28.494;-16.312;2023-02-15T17:00:41;6.53;;;1.13;;
33840;SDS011;20142;28.494;-16.312;2023-02-15T17:05:48;6.47;;;1.60;;
33840;SDS011;20142;28.494;-16.312;2023-02-15T17:21:08;4.65;;;0.80;;
33840;SDS011;20142;28.494;-16.312;2023-02-15T17:26:26;4.28;;;0.63;;
33840;SDS011;20142;28.494;-16.312;2023-02-15T17:31:31;5.88;;;0.80;;
33840;SDS011;20142;28.494;-16.312;2023-02-15T17:36:34;7.32;;;0.85;;
33840;SDS011;20142;28.494;-16.312;2023-02-15T17:41:35;9.07;;;1.20;;
33840;SDS011;20142;28.494;-16.312;2023-02-15T17:46:37;9.02;;;1.17;;
33840;SDS011;20142;28.494;-16.312;2023-02-15T17:51:40;10.38;;;1.60;;
33840;SDS011;20142;28.494;-16.312;2023-02-15T17:56:41;11.20;;;1.30;;
33840;SDS011;20142;28.494;-16.312;2023-02-15T18:01:48;16.52;;;1.33;;
33840;SDS011;20142;28.494;-16.312;2023-02-15T18:07:16;16.77;;;1.45;;
33840;SDS011;20142;28.494;-16.312;2023-02-15T18:12:37;9.73;;;1.15;;
33840;SDS011;20142;28.494;-16.312;2023-02-15T18:17:42;12.73;;;0.90;;
33840;SDS011;20142;28.494;-16.312;2023-02-15T18:22:47;9.02;;;0.85;;
33840;SDS011;20142;28.494;-16.312;2023-02-15T18:27:49;10.65;;;1.20;;
33840;SDS011;20142;28.494;-16.312;2023-02-15T18:32:52;12.70;;;1.60;;
33840;SDS011;20142;28.494;-16.312;2023-02-15T18:37:57;11.88;;;1.35;;
33840;SDS011;20142;28.494;-16.312;2023-02-15T18:43:00;14.98;;;1.42;;
33840;SDS011;20142;28.494;-16.312;2023-02-15T18:48:02;11.90;;;1.38;;
33840;SDS011;20142;28.494;-16.312;2023-02-15T18:53:05;14.60;;;2.40;;
33840;SDS011;20142;28.494;-16.312;2023-02-15T18:58:19;9.48;;;1.83;;
33840;SDS011;20142;28.494;-16.312;2023-02-15T19:03:23;14.65;;;1.90;;
33840;SDS011;20142;28.494;-16.312;2023-02-15T19:08:25;9.45;;;1.40;;
33840;SDS011;20142;28.494;-16.312;2023-02-15T19:13:26;11.00;;;1.23;;
33840;SDS011;20142;28.494;-16.312;2023-02-15T19:18:28;10.60;;;1.45;;
33840;SDS011;20142;28.494;-16.312;2023-02-15T19:23:29;7.47;;;1.30;;
33840;SDS011;20142;28.494;-16.312;2023-02-15T19:28:33;15.30;;;1.48;;
33840;SDS011;20142;28.494;-16.312;2023-02-15T19:33:34;13.15;;;1.35;;
33840;SDS011;20142;28.494;-16.312;2023-02-15T19:38:36;6.82;;;1.00;;
33840;SDS011;20142;28.494;-16.312;2023-02-15T19:43:38;11.00;;;1.55;;
33840;SDS011;20142;28.494;-16.312;2023-02-15T19:48:39;10.82;;;1.65;;
33840;SDS011;20142;28.494;-16.312;2023-02-15T19:53:41;9.18;;;1.45;;
33840;SDS011;20142;28.494;-16.312;2023-02-15T19:58:43;12.68;;;2.13;;
33840;SDS011;20142;28.494;-16.312;2023-02-15T20:03:45;12.10;;;1.52;;
33840;SDS011;20142;28.494;-16.312;2023-02-15T20:08:46;16.00;;;1.55;;
33840;SDS011;20142;28.494;-16.312;2023-02-15T20:13:48;17.98;;;1.50;;
33840;SDS011;20142;28.494;-16.312;2023-02-15T20:18:50;14.50;;;1.90;;
33840;SDS011;20142;28.494;-16.312;2023-02-15T20:23:51;8.20;;;1.23;;
33840;SDS011;20142;28.494;-16.312;2023-02-15T20:28:53;11.25;;;1.65;;
33840;SDS011;20142;28.494;-16.312;2023-02-15T20:33:55;13.45;;;1.30;;
33840;SDS011;20142;28.494;-16.312;2023-02-15T20:38:58;15.38;;;1.60;;
33840;SDS011;20142;28.494;-16.312;2023-02-15T20:44:21;7.97;;;1.48;;
33840;SDS011;20142;28.494;-16.312;2023-02-15T20:49:31;10.13;;;1.80;;
33840;SDS011;20142;28.494;-16.312;2023-02-15T20:54:33;5.80;;;1.30;;
33840;SDS011;20142;28.494;-16.312;2023-02-15T20:59:36;7.22;;;1.27;;
33840;SDS011;20142;28.494;-16.312;2023-02-15T21:04:40;16.83;;;1.70;;
33840;SDS011;20142;28.494;-16.312;2023-02-15T21:09:42;17.15;;;1.73;;
33840;SDS011;20142;28.494;-16.312;2023-02-15T21:14:45;13.50;;;1.67;;
33840;SDS011;20142;28.494;-16.312;2023-02-15T21:19:47;9.65;;;0.93;;
33840;SDS011;20142;28.494;-16.312;2023-02-15T21:24:49;14.90;;;1.45;;
33840;SDS011;20142;28.494;-16.312;2023-02-15T21:29:54;5.70;;;1.00;;
33840;SDS011;20142;28.494;-16.312;2023-02-15T21:34:56;12.30;;;1.15;;
33840;SDS011;20142;28.494;-16.312;2023-02-15T21:39:57;7.38;;;0.75;;
33840;SDS011;20142;28.494;-16.312;2023-02-15T21:44:59;7.50;;;0.82;;
33840;SDS011;20142;28.494;-16.312;2023-02-15T21:55:43;7.20;;;0.70;;
33840;SDS011;20142;28.494;-16.312;2023-02-15T22:00:45;7.25;;;1.35;;
33840;SDS011;20142;28.494;-16.312;2023-02-15T22:05:47;6.35;;;0.98;;
33840;SDS011;20142;28.494;-16.312;2023-02-15T22:10:49;11.52;;;1.00;;
33840;SDS011;20142;28.494;-16.312;2023-02-15T22:15:51;10.35;;;0.95;;
33840;SDS011;20142;28.494;-16.312;2023-02-15T22:20:53;7.28;;;1.00;;
33840;SDS011;20142;28.494;-16.312;2023-02-15T22:25:56;9.82;;;1.00;;
33840;SDS011;20142;28.494;-16.312;2023-02-15T22:31:11;9.63;;;1.97;;
33840;SDS011;20142;28.494;-16.312;2023-02-15T22:36:26;9.55;;;0.93;;
33840;SDS011;20142;28.494;-16.312;2023-02-15T22:41:29;9.70;;;1.40;;
33840;SDS011;20142;28.494;-16.312;2023-02-15T22:46:31;10.55;;;0.68;;
33840;SDS011;20142;28.494;-16.312;2023-02-15T22:51:33;10.70;;;0.90;;
33840;SDS011;20142;28.494;-16.312;2023-02-15T22:56:38;5.13;;;1.27;;
33840;SDS011;20142;28.494;-16.312;2023-02-15T23:01:45;7.55;;;0.50;;
33840;SDS011;20142;28.494;-16.312;2023-02-15T23:06:47;8.43;;;1.23;;
33840;SDS011;20142;28.494;-16.312;2023-02-15T23:11:50;6.32;;;0.60;;
33840;SDS011;20142;28.494;-16.312;2023-02-15T23:16:53;4.30;;;0.52;;
33840;SDS011;20142;28.494;-16.312;2023-02-15T23:21:54;7.45;;;0.85;;
33840;SDS011;20142;28.494;-16.312;2023-02-15T23:26:56;7.30;;;0.80;;
33840;SDS011;20142;28.494;-16.312;2023-02-15T23:32:18;7.18;;;0.68;;
33840;SDS011;20142;28.494;-16.312;2023-02-15T23:37:21;13.88;;;1.17;;
33840;SDS011;20142;28.494;-16.312;2023-02-15T23:42:27;10.32;;;0.82;;
33840;SDS011;20142;28.494;-16.312;2023-02-15T23:47:32;5.20;;;0.63;;
33840;SDS011;20142;28.494;-16.312;2023-02-15T23:52:54;7.28;;;1.25;;
33840;SDS011;20142;28.494;-16.312;2023-02-15T23:57:57;9.10;;;1.10;;
